Time;durP1;ratioP1;P1;durP2;ratioP2;P2;SDS_P1;SDS_P2;PMS_P1;PMS_P2;Temp;Humidity;BMP_temperature;BMP_pressure;BME280_temperature;BME280_humidity;BME280_pressure;Samples;Min_cycle;Max_cycle;Signal;HPM_P1;HPM_P2
2021/03/26 00:01:11;;;;;;;24.20;15.75;;;;;;;7.56;68.12;100689.66;5094680;28;20048;-64
2021/03/26 00:03:40;;;;;;;26.98;16.55;;;;;;;7.52;68.53;100689.44;5094886;28;20493;-64
2021/03/26 00:06:11;;;;;;;26.33;16.27;;;;;;;7.50;68.53;100681.38;5094193;28;20056;-64
2021/03/26 00:08:38;;;;;;;23.27;15.48;;;;;;;7.46;68.23;100696.13;5098154;28;20047;-64
2021/03/26 00:11:06;;;;;;;26.52;16.15;;;;;;;7.44;68.24;100687.25;5114557;28;20059;-64
2021/03/26 00:13:35;;;;;;;26.10;17.08;;;;;;;7.42;68.27;100692.25;5094184;28;20055;-64
2021/03/26 00:16:02;;;;;;;26.73;17.35;;;;;;;7.40;69.04;100698.09;5094359;28;20047;-64
2021/03/26 00:18:29;;;;;;;28.70;17.02;;;;;;;7.39;69.86;100698.38;5094726;28;20511;-64
2021/03/26 00:20:58;;;;;;;30.85;19.88;;;;;;;7.37;70.70;100693.13;5094184;28;20055;-64
2021/03/26 00:23:25;;;;;;;27.15;17.50;;;;;;;7.38;70.45;100697.53;5094738;28;20044;-64
2021/03/26 00:25:52;;;;;;;26.90;17.42;;;;;;;7.39;69.81;100690.91;5094522;28;20412;-64
2021/03/26 00:28:21;;;;;;;26.10;16.20;;;;;;;7.38;69.16;100693.97;5093944;28;20048;-64
2021/03/26 00:30:48;;;;;;;25.65;15.98;;;;;;;7.35;69.70;100687.06;5093706;28;20055;-64
2021/03/26 00:33:15;;;;;;;25.88;17.27;;;;;;;7.35;68.97;100689.81;5093427;28;20237;-64
2021/03/26 00:35:42;;;;;;;26.45;17.13;;;;;;;7.34;69.35;100690.91;5093768;28;20056;-64
2021/03/26 00:38:12;;;;;;;29.88;17.98;;;;;;;7.35;70.22;100694.50;5093712;28;20052;-64
2021/03/26 00:40:39;;;;;;;26.05;16.52;;;;;;;7.34;69.71;100687.34;5093535;28;20511;-64
2021/03/26 00:43:09;;;;;;;27.02;17.13;;;;;;;7.32;69.35;100684.84;5093423;28;20063;-64
2021/03/26 00:45:38;;;;;;;29.25;17.90;;;;;;;7.28;69.77;100692.88;5093565;28;20079;-64
2021/03/26 00:48:07;;;;;;;25.88;16.98;;;;;;;7.28;69.80;100683.75;5094478;28;20058;-64
2021/03/26 00:50:36;;;;;;;27.25;17.55;;;;;;;7.24;69.45;100686.25;5093682;28;20396;-64
2021/03/26 00:53:07;;;;;;;29.25;17.15;;;;;;;7.23;70.20;100681.84;5093833;28;20396;-64
2021/03/26 00:55:35;;;;;;;28.50;17.95;;;;;;;7.24;69.55;100674.38;5093864;28;20419;-64
2021/03/26 00:58:02;;;;;;;26.65;17.95;;;;;;;7.21;69.60;100683.25;5093419;28;20058;-64
2021/03/26 01:00:31;;;;;;;28.55;18.63;;;;;;;7.18;70.16;100679.13;5093479;28;20048;-64
2021/03/26 01:02:59;;;;;;;30.87;18.77;;;;;;;7.17;70.23;100671.91;5093688;28;20404;-64
2021/03/26 01:05:28;;;;;;;28.35;17.65;;;;;;;7.16;70.08;100670.28;5093529;28;20507;-64
2021/03/26 01:07:58;;;;;;;31.50;19.27;;;;;;;7.15;69.95;100674.16;5093547;28;20063;-64
2021/03/26 01:10:28;;;;;;;28.50;18.92;;;;;;;7.14;70.91;100671.66;5093647;28;20052;-64
2021/03/26 01:12:55;;;;;;;;;;;;;;;7.10;70.48;100668.66;5094159;28;20048;-64
2021/03/26 01:15:26;;;;;;;27.88;17.17;;;;;;;7.03;70.23;100670.88;5092903;28;19924;-64
2021/03/26 01:17:56;;;;;;;32.50;19.02;;;;;;;7.02;70.29;100672.03;5093340;28;20056;-64
2021/03/26 01:20:25;;;;;;;29.38;18.45;;;;;;;7.01;70.66;100670.34;5093263;28;20055;-64
2021/03/26 01:22:53;;;;;;;31.10;17.88;;;;;;;7.01;70.43;100673.94;5093171;28;20044;-64
2021/03/26 01:25:25;;;;;;;31.20;17.73;;;;;;;7.00;70.42;100672.28;5094586;28;20058;-64
2021/03/26 01:27:52;;;;;;;28.25;16.95;;;;;;;6.99;70.03;100672.56;5093079;28;20059;-66
2021/03/26 01:30:23;;;;;;;28.20;17.52;;;;;;;6.99;69.91;100667.03;5092611;28;20052;-65
2021/03/26 01:32:51;;;;;;;30.48;18.33;;;;;;;6.97;69.88;100661.81;5093134;28;20126;-64
2021/03/26 01:35:19;;;;;;;27.10;17.65;;;;;;;6.97;69.79;100663.72;5092718;28;20048;-65
2021/03/26 01:37:46;;;;;;;30.73;18.25;;;;;;;6.94;70.29;100651.28;5092987;28;20052;-65
2021/03/26 01:40:19;;;;;;;33.45;19.27;;;;;;;6.94;70.25;100647.69;5094051;28;20063;-65
2021/03/26 01:42:47;;;;;;;30.67;18.85;;;;;;;6.91;71.01;100646.31;5092779;28;20070;-64
2021/03/26 01:45:22;;;;;;;32.85;20.30;;;;;;;6.90;71.11;100645.47;5093079;28;20481;-65
2021/03/26 01:47:52;;;;;;;35.78;21.20;;;;;;;6.89;71.52;100640.25;5092756;28;20063;-65
2021/03/26 01:50:20;;;;;;;42.58;23.33;;;;;;;6.88;72.19;100633.84;5092785;28;20390;-65
2021/03/26 01:52:48;;;;;;;39.70;20.67;;;;;;;6.86;72.05;100635.25;5093103;28;20052;-65
2021/03/26 01:55:24;;;;;;;35.72;20.75;;;;;;;6.85;71.98;100641.94;5093214;28;20060;-65
2021/03/26 01:57:52;;;;;;;33.03;18.55;;;;;;;6.85;71.39;100637.22;5093039;28;20408;-65
2021/03/26 02:00:25;;;;;;;33.10;18.90;;;;;;;6.86;71.31;100638.03;5092783;28;20055;-65
2021/03/26 02:02:54;;;;;;;31.10;18.42;;;;;;;6.83;70.92;100638.63;5093516;28;20063;-65
2021/03/26 02:05:25;;;;;;;32.55;18.45;;;;;;;6.82;70.98;100642.47;5092852;28;20051;-65
2021/03/26 02:07:53;;;;;;;30.98;18.77;;;;;;;6.80;71.02;100633.63;5092892;28;20084;-65
2021/03/26 02:10:21;;;;;;;32.80;19.58;;;;;;;6.74;70.88;100623.69;5092778;28;20057;-65
2021/03/26 02:13:05;;;;;;;33.13;18.02;;;;;;;6.73;71.04;100631.19;5112284;28;20051;-65
2021/03/26 02:15:40;;;;;;;33.53;18.77;;;;;;;6.71;70.80;100638.94;5113179;28;20055;-64
2021/03/26 02:18:09;;;;;;;30.58;17.15;;;;;;;6.68;70.79;100625.69;5112976;28;20051;-64
2021/03/26 02:20:42;;;;;;;26.38;17.08;;;;;;;6.66;71.03;100634.28;5113077;28;20056;-65
2021/03/26 02:23:12;;;;;;;26.20;16.55;;;;;;;6.61;71.02;100627.91;5112695;28;20054;-65
2021/03/26 02:25:40;;;;;;;27.13;16.10;;;;;;;6.61;70.57;100630.69;5093641;28;20066;-65
2021/03/26 02:28:07;;;;;;;28.77;16.92;;;;;;;6.60;70.36;100634.59;5092554;28;20060;-65
2021/03/26 02:30:42;;;;;;;28.63;18.17;;;;;;;6.55;70.50;100631.81;5092335;28;20048;-65
2021/03/26 02:33:08;;;;;;;29.05;17.95;;;;;;;6.48;70.64;100621.06;5092355;28;20488;-65
2021/03/26 02:35:38;;;;;;;34.13;19.88;;;;;;;6.47;71.21;100623.00;5091939;28;20503;-65
2021/03/26 02:38:12;;;;;;;33.15;19.58;;;;;;;6.45;71.12;100618.88;5092413;28;20048;-65
2021/03/26 02:40:41;;;;;;;36.95;22.35;;;;;;;6.43;71.38;100619.16;5092103;28;20052;-64
2021/03/26 02:43:15;;;;;;;;;;;;;;;6.41;71.35;100615.84;5095541;28;20048;-64
2021/03/26 02:45:49;;;;;;;39.55;22.27;;;;;;;6.36;71.06;100615.84;5096171;28;19931;-64
2021/03/26 02:48:25;;;;;;;41.55;21.90;;;;;;;6.34;71.13;100609.78;5095899;28;20059;-64
2021/03/26 02:51:00;;;;;;;39.72;22.00;;;;;;;6.29;71.07;100609.78;5095779;28;20390;-64
2021/03/26 02:53:36;;;;;;;36.80;21.75;;;;;;;6.24;71.43;100610.66;5096484;28;20044;-64
2021/03/26 02:56:07;;;;;;;37.05;21.70;;;;;;;6.20;71.19;100608.75;5095931;28;20056;-65
2021/03/26 02:58:39;;;;;;;36.25;21.20;;;;;;;6.16;71.26;100602.09;5095523;28;20048;-65
2021/03/26 03:01:12;;;;;;;35.78;20.58;;;;;;;6.15;71.40;100611.50;5095673;28;20052;-65
2021/03/26 03:03:41;;;;;;;28.63;17.25;;;;;;;6.12;71.37;100617.63;5095420;28;20055;-65
2021/03/26 03:06:15;;;;;;;27.90;15.47;;;;;;;6.08;71.60;100623.69;5095875;28;20539;-65
2021/03/26 03:08:44;;;;;;;28.80;15.57;;;;;;;6.05;70.90;100618.72;5095740;28;20489;-65
2021/03/26 03:11:17;;;;;;;23.90;14.45;;;;;;;6.02;71.22;100619.28;5095166;28;20063;-65
2021/03/26 03:13:49;;;;;;;27.15;15.30;;;;;;;5.99;71.07;100624.56;5096346;28;20059;-65
2021/03/26 03:16:22;;;;;;;25.73;15.77;;;;;;;5.97;70.98;100622.06;5096077;28;20503;-64
2021/03/26 03:19:00;;;;;;;29.63;17.15;;;;;;;5.92;71.06;100621.22;5095522;28;20051;-65
2021/03/26 03:21:32;;;;;;;27.50;16.15;;;;;;;5.89;71.20;100619.84;5095171;28;20051;-65
2021/03/26 03:24:08;;;;;;;31.83;17.10;;;;;;;5.89;71.15;100619.84;5095372;28;20051;-65
2021/03/26 03:26:46;;;;;;;33.67;17.75;;;;;;;5.83;71.25;100623.72;5094879;28;20377;-65
2021/03/26 03:29:21;;;;;;;26.65;15.68;;;;;;;5.83;70.73;100620.94;5095522;28;20488;-65
2021/03/26 03:31:53;;;;;;;29.35;18.80;;;;;;;5.81;70.77;100617.63;5095394;28;20056;-65
2021/03/26 03:34:30;;;;;;;31.60;18.08;;;;;;;5.78;71.12;100619.03;5094996;28;20048;-65
2021/03/26 03:37:07;;;;;;;33.28;18.50;;;;;;;5.75;70.76;100613.22;5095397;28;20499;-65
2021/03/26 03:39:42;;;;;;;32.58;18.88;;;;;;;5.73;70.97;100609.91;5095312;28;20051;-64
2021/03/26 03:42:16;;;;;;;36.17;20.33;;;;;;;5.71;71.39;100610.19;5094818;28;20055;-65
2021/03/26 03:44:48;;;;;;;41.15;22.27;;;;;;;5.69;71.62;100601.34;5095597;28;20079;-65
2021/03/26 03:47:20;;;;;;;41.35;21.92;;;;;;;5.65;71.87;100612.13;5094944;28;20477;-64
2021/03/26 03:49:56;;;;;;;44.85;25.23;;;;;;;5.64;72.29;100599.41;5094494;28;20063;-65
2021/03/26 03:52:27;;;;;;;43.30;23.67;;;;;;;5.60;72.41;100595.56;5091142;28;20535;-65
2021/03/26 03:55:01;;;;;;;42.90;24.10;;;;;;;5.59;72.73;100596.66;5095203;28;20059;-65
2021/03/26 03:57:35;;;;;;;43.55;23.27;;;;;;;5.56;72.39;100594.44;5094808;28;20488;-65
2021/03/26 04:00:14;;;;;;;40.53;22.90;;;;;;;5.56;72.36;100597.22;5095080;28;20059;-64
2021/03/26 04:02:48;;;;;;;40.22;22.42;;;;;;;5.57;72.17;100579.53;5094902;28;20071;-65
2021/03/26 04:05:22;;;;;;;42.58;22.90;;;;;;;5.57;72.33;100585.06;5094726;28;20052;-65
2021/03/26 04:08:00;;;;;;;40.03;22.10;;;;;;;5.58;72.02;100585.88;5094866;28;20048;-64
2021/03/26 04:10:35;;;;;;;37.47;21.60;;;;;;;5.59;72.35;100585.63;5094124;28;20055;-64
2021/03/26 04:13:08;;;;;;;34.92;19.83;;;;;;;5.60;72.08;100586.44;5094599;28;20059;-64
2021/03/26 04:15:39;;;;;;;33.00;19.13;;;;;;;5.57;71.94;100584.25;5094416;28;20044;-64
2021/03/26 04:18:07;;;;;;;35.28;19.90;;;;;;;5.56;71.89;100582.56;5093698;28;20079;-64
2021/03/26 04:20:42;;;;;;;37.95;21.48;;;;;;;5.54;71.97;100580.09;5094148;28;20075;-64
2021/03/26 04:23:14;;;;;;;37.30;22.20;;;;;;;5.54;71.66;100574.56;5094568;28;20145;-64
2021/03/26 04:25:49;;;;;;;40.33;22.73;;;;;;;5.52;71.63;100581.47;5093968;28;20059;-64
2021/03/26 04:28:22;;;;;;;41.67;22.80;;;;;;;5.49;71.41;100578.16;5093824;28;20056;-64
2021/03/26 04:30:54;;;;;;;40.10;22.20;;;;;;;5.46;71.59;100589.78;5093664;28;20059;-64
2021/03/26 04:33:22;;;;;;;41.58;21.55;;;;;;;5.43;71.58;100590.31;5093834;28;20070;-64
2021/03/26 04:35:51;;;;;;;37.35;20.95;;;;;;;5.42;72.21;100593.38;5093972;28;20048;-65
2021/03/26 04:38:24;;;;;;;39.22;21.05;;;;;;;5.42;72.16;100593.38;5093723;28;20047;-64
2021/03/26 04:41:01;;;;;;;37.72;20.65;;;;;;;5.40;72.08;100596.41;5093854;28;20051;-65
2021/03/26 04:43:34;;;;;;;33.20;20.38;;;;;;;5.40;72.04;100590.06;5093303;28;20063;-64
2021/03/26 04:46:10;;;;;;;37.85;19.98;;;;;;;5.42;71.34;100596.16;5093434;28;20081;-64
2021/03/26 04:48:44;;;;;;;37.75;20.83;;;;;;;5.46;71.44;100598.06;5093440;28;20052;-64
2021/03/26 04:51:18;;;;;;;33.95;20.52;;;;;;;5.47;71.54;100596.94;5093678;28;20055;-64
2021/03/26 04:53:50;;;;;;;34.28;19.77;;;;;;;5.55;71.32;100601.09;5100562;28;20433;-64
2021/03/26 04:56:24;;;;;;;32.58;19.60;;;;;;;5.62;71.68;100587.81;5113536;28;20055;-64
2021/03/26 04:58:57;;;;;;;30.08;17.98;;;;;;;5.69;71.55;100585.59;5114044;28;20059;-64
2021/03/26 05:01:25;;;;;;;35.40;20.35;;;;;;;5.76;71.86;100592.78;5113814;28;20491;-64
2021/03/26 05:03:58;;;;;;;32.85;21.20;;;;;;;5.82;72.06;100586.97;5113356;28;20071;-64
2021/03/26 05:06:30;;;;;;;31.67;20.33;;;;;;;5.94;72.61;100583.06;5113768;28;20055;-64
2021/03/26 05:09:02;;;;;;;34.22;20.75;;;;;;;6.01;72.31;100581.69;5101529;28;20432;-65
2021/03/26 05:11:34;;;;;;;36.63;21.05;;;;;;;6.07;72.68;100585.28;5095864;28;20047;-64
2021/03/26 05:14:06;;;;;;;39.58;22.58;;;;;;;6.12;72.75;100574.19;5093536;28;20055;-64
2021/03/26 05:16:41;;;;;;;37.30;22.25;;;;;;;6.16;73.24;100574.44;5093206;28;20048;-64
2021/03/26 05:19:16;;;;;;;28.10;16.27;;;;;;;6.19;72.56;100574.69;5093018;28;20055;-64
2021/03/26 05:21:47;;;;;;;23.75;15.73;;;;;;;6.26;71.74;100568.88;5093167;28;20052;-64
2021/03/26 05:24:20;;;;;;;28.48;16.23;;;;;;;6.30;71.41;100581.84;5094018;28;20059;-64
2021/03/26 05:26:49;;;;;;;26.38;16.27;;;;;;;6.35;71.14;100575.47;5093035;28;20063;-64
2021/03/26 05:29:16;;;;;;;20.25;13.90;;;;;;;6.41;70.29;100588.16;5092950;28;20051;-64
2021/03/26 05:31:56;;;;;;;21.88;14.20;;;;;;;6.49;70.14;100584.81;5092586;28;20052;-65
2021/03/26 05:34:31;;;;;;;17.50;12.00;;;;;;;6.57;69.46;100577.84;5092592;28;20044;-65
2021/03/26 05:37:10;;;;;;;23.50;13.90;;;;;;;6.63;69.32;100585.00;5092644;28;20056;-65
2021/03/26 05:39:38;;;;;;;20.17;13.32;;;;;;;6.67;69.09;100575.00;5092676;28;20048;-65
2021/03/26 05:42:29;;;;;;;22.45;13.82;;;;;;;6.76;68.79;100580.81;5091792;28;20473;-65
2021/03/26 05:45:28;;;;;;;23.65;15.73;;;;;;;6.76;68.63;100571.66;5093116;28;20052;-65
2021/03/26 05:48:33;;;;;;;29.80;18.60;;;;;;;6.70;69.02;100568.94;5085657;28;20070;-64
2021/03/26 05:51:33;;;;;;;32.80;19.52;;;;;;;6.70;69.13;100568.94;5084493;28;20060;-65
2021/03/26 05:54:14;;;;;;;38.75;21.00;;;;;;;6.71;69.73;100566.97;5092019;28;20052;-65
2021/03/26 05:56:56;;;;;;;38.75;23.13;;;;;;;6.76;70.30;100566.97;5092381;28;20761;-65
2021/03/26 05:59:32;;;;;;;42.78;24.30;;;;;;;6.81;70.03;100564.16;5092607;28;20048;-65
2021/03/26 06:02:46;;;;;;;38.42;23.15;;;;;;;6.84;70.38;100568.28;5097980;28;20074;-65
2021/03/26 06:05:58;;;;;;;32.70;18.77;;;;;;;6.88;69.13;100570.19;5100904;28;20059;-65
2021/03/26 06:08:36;;;;;;;33.72;18.38;;;;;;;6.97;68.85;100569.56;5056136;28;20064;-65
2021/03/26 06:11:45;;;;;;;31.08;18.25;;;;;;;6.97;67.28;100567.66;5085151;28;20048;-65
2021/03/26 06:14:49;;;;;;;30.52;18.83;;;;;;;6.96;67.71;100565.97;5062613;28;20052;-64
2021/03/26 06:17:31;;;;;;;35.50;22.58;;;;;;;7.00;68.45;100569.81;5101887;28;20059;-64
2021/03/26 06:20:35;;;;;;;35.22;21.88;;;;;;;7.16;69.28;100565.00;5117092;28;20129;-64
2021/03/26 06:23:32;;;;;;;38.83;22.52;;;;;;;7.23;69.09;100565.50;5099260;28;20125;-64
2021/03/26 06:26:31;;;;;;;34.80;22.38;;;;;;;7.46;71.70;100563.09;5101470;28;20416;-64
2021/03/26 06:29:12;;;;;;;32.75;20.88;;;;;;;7.67;72.65;100560.94;5090469;28;20484;-64
2021/03/26 06:32:13;;;;;;;33.38;21.95;;;;;;;7.96;72.81;100554.50;5103001;28;20048;-64
2021/03/26 06:35:07;;;;;;;36.97;23.27;;;;;;;8.27;72.23;100553.06;5108566;28;20058;-64
2021/03/26 06:37:47;;;;;;;40.70;24.88;;;;;;;8.51;72.21;100561.34;5111137;28;20052;-64
2021/03/26 06:40:40;;;;;;;28.55;18.52;;;;;;;8.72;71.72;100545.22;5102466;28;20062;-64
2021/03/26 06:43:29;;;;;;;35.13;22.05;;;;;;;8.98;70.58;100563.47;5104078;28;20048;-64
2021/03/26 06:46:11;;;;;;;35.33;24.05;;;;;;;9.11;69.74;100551.56;5114821;28;20055;-64
2021/03/26 06:48:53;;;;;;;31.42;20.48;;;;;;;9.38;69.31;100552.81;5102690;28;20059;-65
2021/03/26 06:51:52;;;;;;;39.63;23.13;;;;;;;9.59;68.10;100553.28;5116385;28;20060;-65
2021/03/26 06:54:49;;;;;;;34.07;20.03;;;;;;;9.68;67.25;100549.50;5107362;28;20051;-65
2021/03/26 06:57:35;;;;;;;33.30;20.38;;;;;;;9.87;67.00;100554.97;5116060;28;20070;-65
2021/03/26 07:00:39;;;;;;;29.90;18.50;;;;;;;10.03;66.17;100555.47;5116299;28;20102;-65
2021/03/26 07:04:06;;;;;;;35.83;21.05;;;;;;;10.27;65.37;100549.72;5068784;28;20051;-65
2021/03/26 07:07:05;;;;;;;30.25;20.70;;;;;;;10.70;63.53;100540.19;5095876;28;20048;-65
2021/03/26 07:10:10;;;;;;;32.33;21.65;;;;;;;11.56;60.93;100533.59;5096147;28;20052;-65
2021/03/26 07:12:58;;;;;;;29.27;20.25;;;;;;;12.59;56.97;100537.94;5093407;28;20056;-65
2021/03/26 07:15:30;;;;;;;26.42;18.88;;;;;;;13.45;54.38;100531.88;5095434;28;20048;-65
2021/03/26 07:18:25;;;;;;;31.15;21.38;;;;;;;14.20;51.86;100530.28;5094910;28;20052;-65
2021/03/26 07:21:10;;;;;;;27.55;19.25;;;;;;;14.72;49.84;100537.56;5095365;28;20056;-65
2021/03/26 07:24:13;;;;;;;28.00;20.63;;;;;;;15.56;47.82;100526.25;5097555;28;20055;-65
2021/03/26 07:26:53;;;;;;;30.15;19.25;;;;;;;16.47;45.18;100524.47;5095629;28;20508;-64
2021/03/26 07:29:50;;;;;;;26.20;18.85;;;;;;;17.10;43.62;100529.63;5102516;28;20468;-65
2021/03/26 07:32:30;;;;;;;25.75;19.40;;;;;;;17.88;41.69;100524.56;5103121;27;20063;-64
2021/03/26 07:35:23;;;;;;;23.05;18.10;;;;;;;18.68;39.59;100523.28;5105080;28;20040;-65
2021/03/26 07:38:06;;;;;;;24.48;18.92;;;;;;;19.35;37.77;100528.75;5110573;28;20047;-65
2021/03/26 07:40:48;;;;;;;26.42;20.67;;;;;;;19.85;36.63;100526.09;5104355;28;20070;-65
2021/03/26 07:43:40;;;;;;;23.60;18.40;;;;;;;20.08;35.60;100526.91;5108457;28;20067;-64
2021/03/26 07:46:29;;;;;;;22.38;18.48;;;;;;;20.49;35.20;100517.84;5096374;28;20051;-65
2021/03/26 07:49:11;;;;;;;;;;;;;;;20.50;34.80;100521.50;5108166;28;20062;-64
2021/03/26 07:51:43;;;;;;;22.67;17.52;;;;;;;20.48;34.86;100516.22;5094382;28;20270;-64
2021/03/26 07:54:32;;;;;;;20.85;18.33;;;;;;;20.59;34.36;100534.19;5113129;28;20507;-64
2021/03/26 07:57:41;;;;;;;21.52;18.13;;;;;;;21.02;33.08;100508.50;5107135;28;20054;-64
2021/03/26 08:00:49;;;;;;;22.50;18.13;;;;;;;21.80;31.75;100511.44;5106873;28;20055;-64
2021/03/26 08:03:32;;;;;;;24.13;17.23;;;;;;;22.19;30.99;100510.97;5109273;28;20067;-64
2021/03/26 08:06:15;;;;;;;20.15;17.60;;;;;;;22.53;30.13;100516.50;5109245;28;20066;-65
2021/03/26 08:08:58;;;;;;;21.58;16.88;;;;;;;22.41;30.27;100511.19;5106895;28;20492;-63
2021/03/26 08:11:53;;;;;;;21.55;16.88;;;;;;;23.18;28.89;100503.50;5106555;28;20055;-63
2021/03/26 08:14:32;;;;;;;21.23;17.02;;;;;;;24.14;27.40;100507.75;5106241;28;20060;-63
2021/03/26 08:17:13;;;;;;;19.02;16.40;;;;;;;24.94;25.94;100492.19;5100502;28;20059;-63
2021/03/26 08:19:52;;;;;;;20.27;17.63;;;;;;;25.50;25.36;100500.91;5103017;28;20408;-63
2021/03/26 08:22:27;;;;;;;20.38;17.67;;;;;;;25.52;25.40;100496.41;5105608;28;20040;-63
2021/03/26 08:25:24;;;;;;;18.02;15.68;;;;;;;26.09;23.69;100505.81;5107090;28;20385;-63
2021/03/26 08:28:07;;;;;;;17.67;15.07;;;;;;;26.80;23.35;100495.75;5111412;28;20059;-64
2021/03/26 08:30:45;;;;;;;18.42;15.63;;;;;;;26.71;23.12;100486.88;5110934;28;20054;-64
2021/03/26 08:33:31;;;;;;;17.80;15.55;;;;;;;27.24;22.72;100502.59;5099012;28;20043;-64
2021/03/26 08:36:21;;;;;;;18.25;15.77;;;;;;;27.85;21.97;100503.78;5098872;28;20067;-64
2021/03/26 08:39:24;;;;;;;16.95;14.45;;;;;;;27.60;21.61;100504.16;5106490;28;20055;-64
2021/03/26 08:42:00;;;;;;;18.75;16.70;;;;;;;27.54;21.88;100500.97;5102057;28;20055;-64
2021/03/26 08:44:29;;;;;;;16.88;14.65;;;;;;;28.30;21.05;100503.47;5067692;28;20405;-64
2021/03/26 08:46:57;;;;;;;;;;;;;;;28.16;21.32;100509.44;5068022;28;20044;-65
2021/03/26 08:49:37;;;;;;;18.50;16.23;;;;;;;29.03;19.89;100498.81;5068172;28;20365;-64
2021/03/26 08:52:20;;;;;;;16.70;14.85;;;;;;;29.31;19.87;100497.41;5060952;28;20053;-64
2021/03/26 08:55:16;;;;;;;15.38;13.77;;;;;;;30.27;18.37;100486.97;5062892;28;20052;-64
2021/03/26 08:57:54;;;;;;;16.80;14.57;;;;;;;30.13;18.62;100497.59;5061813;28;20063;-64
2021/03/26 09:00:37;;;;;;;16.27;14.52;;;;;;;30.49;17.83;100493.81;5057902;28;20063;-64
2021/03/26 09:03:25;;;;;;;17.27;15.32;;;;;;;29.87;18.39;100490.84;5057747;28;20494;-63
2021/03/26 09:06:08;;;;;;;14.88;13.25;;;;;;;30.17;17.93;100497.47;5066475;28;20052;-64
2021/03/26 09:09:17;;;;;;;16.23;14.48;;;;;;;30.53;17.93;100488.78;5065563;28;20497;-64
2021/03/26 09:12:05;;;;;;;16.42;14.30;;;;;;;31.19;17.53;100482.00;5054400;28;20374;-64
2021/03/26 09:14:51;;;;;;;16.40;13.83;;;;;;;31.42;16.96;100478.00;5064678;28;20056;-64
2021/03/26 09:17:22;;;;;;;15.68;12.88;;;;;;;31.22;17.24;100481.06;5066092;28;20465;-64
2021/03/26 09:19:54;;;;;;;14.45;12.45;;;;;;;31.37;16.48;100485.13;5064139;28;20059;-64
2021/03/26 09:22:44;;;;;;;16.15;13.68;;;;;;;29.91;18.00;100473.53;5065269;28;20053;-63
2021/03/26 09:25:39;;;;;;;15.95;14.02;;;;;;;30.83;17.32;100477.28;5064638;28;20056;-64
2021/03/26 09:28:12;;;;;;;15.05;13.55;;;;;;;31.36;16.47;100475.69;5071394;28;20515;-63
2021/03/26 09:30:43;;;;;;;15.38;13.77;;;;;;;31.61;16.48;100465.50;5065793;28;20075;-63
2021/03/26 09:33:14;;;;;;;14.55;13.02;;;;;;;32.26;15.93;100461.28;5058219;28;20053;-64
2021/03/26 09:35:46;;;;;;;15.10;12.63;;;;;;;33.13;14.96;100459.78;5065770;28;20408;-63
2021/03/26 09:38:30;;;;;;;13.02;11.18;;;;;;;33.09;14.40;100453.31;5066306;28;20481;-63
2021/03/26 09:41:07;;;;;;;12.35;11.05;;;;;;;31.79;15.48;100472.72;5069019;28;20052;-64
2021/03/26 09:43:45;;;;;;;12.20;11.00;;;;;;;29.60;17.70;100464.41;5094568;28;20046;-63
2021/03/26 09:46:16;;;;;;;13.20;11.80;;;;;;;30.27;17.28;100458.25;5104976;28;20044;-63
2021/03/26 09:49:04;;;;;;;13.70;12.40;;;;;;;31.21;16.28;100460.13;5101683;28;20403;-64
2021/03/26 09:51:47;;;;;;;14.10;12.70;;;;;;;32.90;15.04;100457.34;5105360;28;20376;-64
2021/03/26 09:54:28;;;;;;;14.10;12.63;;;;;;;33.13;14.40;100445.34;5106706;28;20052;-64
2021/03/26 09:57:06;;;;;;;12.75;10.40;;;;;;;30.71;16.46;100453.75;5108588;28;20050;-64
2021/03/26 09:59:44;;;;;;;13.45;10.85;;;;;;;30.04;17.00;100450.63;5106757;28;20051;-65
2021/03/26 10:02:24;;;;;;;12.27;11.07;;;;;;;31.43;15.64;100434.38;5103118;28;20048;-64
2021/03/26 10:05:01;;;;;;;10.57;9.57;;;;;;;31.82;15.34;100438.06;5111009;28;20055;-64
2021/03/26 10:07:39;;;;;;;13.23;11.35;;;;;;;32.54;14.39;100456.59;5102482;28;20055;-64
2021/03/26 10:13:06;;;;;;;11.65;10.45;;;;;;;32.28;14.84;100438.56;5108168;28;20059;-64
2021/03/26 10:15:38;;;;;;;14.52;11.77;;;;;;;33.00;14.28;100432.25;5107343;28;20059;-64
2021/03/26 10:18:11;;;;;;;12.63;11.30;;;;;;;33.28;13.84;100430.34;5100620;28;20063;-64
2021/03/26 10:20:46;;;;;;;13.90;11.57;;;;;;;34.19;13.26;100420.41;5108864;28;20051;-64
2021/03/26 10:23:35;;;;;;;12.88;11.02;;;;;;;33.05;14.21;100423.78;5109223;28;20354;-64
2021/03/26 10:26:21;;;;;;;13.50;11.07;;;;;;;30.53;15.88;100424.69;5105166;28;20044;-64
2021/03/26 10:29:03;;;;;;;13.52;10.38;;;;;;;31.62;15.26;100429.66;5105420;28;20066;-64
2021/03/26 10:31:34;;;;;;;14.15;11.13;;;;;;;33.42;13.55;100411.66;5102796;28;20404;-64
2021/03/26 10:34:04;;;;;;;12.50;10.68;;;;;;;33.93;13.69;100403.31;5098271;28;20055;-64
2021/03/26 10:36:43;;;;;;;11.13;10.13;;;;;;;34.71;12.45;100401.16;5102457;28;20044;-64
2021/03/26 10:39:14;;;;;;;9.93;8.93;;;;;;;34.73;12.28;100398.59;5103644;28;20047;-64
2021/03/26 10:41:56;;;;;;;9.02;8.13;;;;;;;35.18;11.19;100396.06;5105419;28;20059;-64
2021/03/26 10:44:33;;;;;;;10.82;8.45;;;;;;;34.69;11.62;100397.94;5102100;28;20048;-64
2021/03/26 10:47:11;;;;;;;13.52;12.00;;;;;;;33.67;12.41;100387.53;5104410;28;20047;-64
2021/03/26 10:49:43;;;;;;;10.77;8.88;;;;;;;31.36;14.25;100392.22;5101964;28;20052;-64
2021/03/26 10:52:16;;;;;;;11.52;10.27;;;;;;;32.39;13.85;100389.16;5106186;28;20048;-64
2021/03/26 10:54:49;;;;;;;10.93;8.50;;;;;;;33.09;12.30;100378.28;5101314;28;20488;-64
2021/03/26 10:57:26;;;;;;;10.65;7.90;;;;;;;33.25;12.34;100374.38;5108052;28;20054;-64
2021/03/26 11:00:01;;;;;;;11.15;9.02;;;;;;;33.67;12.20;100370.19;5110501;28;20055;-64
2021/03/26 11:02:42;;;;;;;9.77;8.77;;;;;;;33.86;11.85;100377.63;5104936;28;20052;-64
2021/03/26 11:05:23;;;;;;;10.63;8.43;;;;;;;34.31;11.37;100370.31;5111752;28;20403;-64
2021/03/26 11:08:17;;;;;;;11.43;8.90;;;;;;;33.85;12.07;100358.69;5105414;28;20056;-64
2021/03/26 11:10:52;;;;;;;10.75;8.75;;;;;;;34.45;11.31;100353.59;5101523;28;20051;-64
2021/03/26 11:13:30;;;;;;;9.52;8.48;;;;;;;34.10;11.70;100356.75;5112085;28;20416;-64
2021/03/26 11:16:04;;;;;;;9.25;8.10;;;;;;;33.37;12.31;100358.22;5111210;27;20503;-64
2021/03/26 11:18:38;;;;;;;9.85;8.50;;;;;;;32.84;13.53;100350.38;5111889;28;20051;-63
2021/03/26 11:21:10;;;;;;;9.45;7.32;;;;;;;32.89;12.85;100351.88;5105872;28;20056;-63
2021/03/26 11:23:39;;;;;;;9.77;8.60;;;;;;;30.51;14.50;100346.72;5110054;28;20059;-64
2021/03/26 11:26:20;;;;;;;10.75;8.15;;;;;;;29.07;16.27;100341.81;5113524;28;20055;-64
2021/03/26 11:28:59;;;;;;;10.35;7.75;;;;;;;28.33;16.92;100337.25;5114049;28;20055;-64
2021/03/26 11:31:31;;;;;;;11.73;8.35;;;;;;;28.93;16.18;100334.34;5111944;28;20484;-64
2021/03/26 11:34:09;;;;;;;10.68;8.20;;;;;;;31.20;14.48;100342.59;5108206;28;20051;-64
2021/03/26 11:36:52;;;;;;;10.13;9.07;;;;;;;30.19;15.29;100325.44;5105916;28;20042;-63
2021/03/26 11:39:31;;;;;;;11.95;8.32;;;;;;;32.11;13.63;100344.91;5103055;28;20402;-64
2021/03/26 11:42:25;;;;;;;10.82;8.25;;;;;;;29.04;16.96;100324.69;5103906;28;20056;-63
2021/03/26 11:44:56;;;;;;;11.80;7.85;;;;;;;27.41;18.45;100322.59;5108123;28;20059;-63
2021/03/26 11:47:37;;;;;;;10.32;7.82;;;;;;;25.70;19.78;100325.13;5110105;28;20048;-63
2021/03/26 11:50:18;;;;;;;10.52;8.50;;;;;;;27.53;17.95;100319.09;5103408;28;20059;-63
2021/03/26 11:53:02;;;;;;;10.88;7.97;;;;;;;25.94;19.70;100310.25;5113190;28;20062;-64
2021/03/26 11:55:33;;;;;;;13.30;8.77;;;;;;;25.65;20.74;100310.50;5109903;28;20507;-64
2021/03/26 11:58:05;;;;;;;11.48;7.45;;;;;;;27.09;18.65;100316.09;5109463;28;20043;-65
2021/03/26 12:00:36;;;;;;;9.00;8.07;;;;;;;29.09;17.02;100295.47;5112071;28;20407;-63
2021/03/26 12:03:15;;;;;;;8.95;7.65;;;;;;;29.79;16.01;100305.63;5110190;28;20051;-63
2021/03/26 12:06:11;;;;;;;10.00;8.00;;;;;;;30.24;15.80;100284.69;5112707;28;20047;-63
2021/03/26 12:08:50;;;;;;;11.15;8.77;;;;;;;31.86;14.74;100291.84;5105972;28;20056;-63